createdAt,value
2023-04-08T00:03:11.081Z,12.93
2023-04-08T00:08:07.735Z,13.15
2023-04-08T00:13:04.232Z,12.93
2023-04-08T00:18:00.992Z,11.02
2023-04-08T00:22:57.559Z,12.55
2023-04-08T00:27:53.991Z,12.35
2023-04-08T00:32:50.735Z,11.50
2023-04-08T00:37:47.913Z,11.90
2023-04-08T00:42:44.339Z,12.43
2023-04-08T00:47:41.130Z,12.60
2023-04-08T00:52:37.660Z,10.52
2023-04-08T00:57:34.299Z,11.07
2023-04-08T01:02:45.855Z,11.73
2023-04-08T01:07:48.184Z,11.18
2023-04-08T01:12:56.013Z,10.10
2023-04-08T01:17:56.293Z,10.80
2023-04-08T01:23:23.806Z,11.10
2023-04-08T01:28:22.225Z,10.80
2023-04-08T01:33:19.634Z,10.88
2023-04-08T01:38:19.634Z,11.75
2023-04-08T01:43:17.731Z,11.70
2023-04-08T01:48:15.730Z,10.82
2023-04-08T01:53:12.840Z,11.05
2023-04-08T01:58:14.452Z,11.20
2023-04-08T02:03:13.096Z,10.83
2023-04-08T02:08:09.587Z,12.30
2023-04-08T02:13:06.293Z,10.95
2023-04-08T02:18:17.059Z,11.05
2023-04-08T02:23:20.745Z,11.25
2023-04-08T02:28:18.855Z,10.45
2023-04-08T02:33:19.322Z,10.30
2023-04-08T02:38:15.816Z,10.13
2023-04-08T02:43:12.242Z,10.32
2023-04-08T02:48:08.736Z,10.07
2023-04-08T02:53:05.450Z,9.63
2023-04-08T02:58:01.916Z,11.93
2023-04-08T03:02:58.539Z,11.45
2023-04-08T03:07:55.314Z,11.40
2023-04-08T03:12:51.725Z,12.20
2023-04-08T03:17:48.242Z,11.73
2023-04-08T03:22:44.738Z,12.40
2023-04-08T03:27:41.179Z,13.00
2023-04-08T03:32:37.755Z,13.98
2023-04-08T03:37:34.207Z,14.90
2023-04-08T03:42:31.025Z,15.63
2023-04-08T03:47:27.493Z,15.93
2023-04-08T03:52:24.969Z,16.10
2023-04-08T03:57:21.388Z,17.58
2023-04-08T04:02:17.877Z,17.40
2023-04-08T04:07:14.403Z,16.60
2023-04-08T04:12:10.780Z,16.75
2023-04-08T04:17:07.211Z,16.75
2023-04-08T04:22:03.641Z,16.33
2023-04-08T04:27:00.058Z,16.92
2023-04-08T04:31:56.442Z,15.25
2023-04-08T04:36:52.926Z,15.73
2023-04-08T04:41:49.414Z,17.02
2023-04-08T04:46:45.876Z,17.77
2023-04-08T04:51:42.427Z,15.13
2023-04-08T04:56:38.829Z,16.15
2023-04-08T05:01:35.371Z,14.52
2023-04-08T05:06:31.898Z,15.63
2023-04-08T05:11:28.302Z,17.00
2023-04-08T05:16:24.890Z,15.52
2023-04-08T05:21:21.402Z,15.27
2023-04-08T05:26:19.335Z,16.65
2023-04-08T05:31:17.462Z,14.05
2023-04-08T05:36:15.061Z,15.82
2023-04-08T05:41:11.525Z,15.82
2023-04-08T05:46:09.207Z,15.88
2023-04-08T05:51:05.877Z,15.15
2023-04-08T05:56:02.293Z,16.02
2023-04-08T06:00:58.816Z,17.00
2023-04-08T06:05:55.250Z,15.98
2023-04-08T06:10:52.422Z,15.15
2023-04-08T06:15:49.821Z,17.35
2023-04-08T06:20:46.394Z,21.17
2023-04-08T06:25:42.901Z,15.75
2023-04-08T06:30:39.405Z,17.00
2023-04-08T06:35:37.375Z,17.52
2023-04-08T06:40:33.844Z,16.83
2023-04-08T06:45:30.274Z,16.80
2023-04-08T06:50:26.751Z,17.65
2023-04-08T06:55:23.185Z,18.55
2023-04-08T07:00:19.655Z,15.20
2023-04-08T07:05:16.536Z,16.15
2023-04-08T07:10:13.354Z,15.70
2023-04-08T07:15:10.386Z,15.27
2023-04-08T07:20:07.482Z,14.00
2023-04-08T07:25:04.375Z,15.27
2023-04-08T07:30:01.539Z,16.17
2023-04-08T07:34:59.532Z,16.00
2023-04-08T07:39:55.973Z,19.25
2023-04-08T07:44:52.436Z,19.27
2023-04-08T07:49:48.975Z,17.75
2023-04-08T07:54:45.460Z,16.92
2023-04-08T07:59:41.907Z,15.32
2023-04-08T08:04:38.500Z,15.30
2023-04-08T08:09:36.145Z,14.70
2023-04-08T08:14:32.590Z,14.77
2023-04-08T08:19:29.025Z,13.60
2023-04-08T08:24:26.022Z,14.45
2023-04-08T08:29:22.425Z,14.27
2023-04-08T08:34:18.865Z,13.35
2023-04-08T08:39:15.418Z,13.90
2023-04-08T08:44:12.727Z,14.32
2023-04-08T08:49:09.364Z,13.32
2023-04-08T08:54:05.841Z,14.02
2023-04-08T08:59:02.334Z,14.70
2023-04-08T09:04:10.306Z,14.63
2023-04-08T09:09:10.192Z,16.15
2023-04-08T09:14:26.331Z,12.93
2023-04-08T09:19:22.761Z,13.02
2023-04-08T09:24:28.969Z,14.80
2023-04-08T09:29:27.616Z,13.43
2023-04-08T09:34:27.388Z,12.45
2023-04-08T09:39:24.246Z,12.57
2023-04-08T09:44:22.053Z,12.57
2023-04-08T09:49:27.171Z,13.88
2023-04-08T09:54:37.074Z,13.13
2023-04-08T09:59:36.746Z,13.38
2023-04-08T10:04:38.187Z,14.55
2023-04-08T10:09:34.874Z,14.35
2023-04-08T10:14:31.343Z,15.45
2023-04-08T10:19:41.195Z,13.32
2023-04-08T10:24:37.659Z,13.93
2023-04-08T10:29:34.219Z,14.18
2023-04-08T10:34:30.870Z,14.00
2023-04-08T10:39:27.510Z,12.45
2023-04-08T10:44:26.953Z,13.43
2023-04-08T10:49:33.225Z,13.32
2023-04-08T10:54:29.680Z,15.45
2023-04-08T10:59:31.976Z,14.07
2023-04-08T11:04:28.518Z,15.60
2023-04-08T11:09:25.099Z,17.52
2023-04-08T11:14:22.389Z,17.00
2023-04-08T11:19:19.832Z,17.90
2023-04-08T11:24:16.577Z,19.08
2023-04-08T11:29:16.746Z,18.88
2023-04-08T11:34:22.616Z,17.60
2023-04-08T11:39:22.779Z,17.25
2023-04-08T11:44:19.244Z,17.08
2023-04-08T11:49:16.255Z,16.58
2023-04-08T11:54:29.539Z,15.13
2023-04-08T11:59:28.360Z,14.00
2023-04-08T12:04:26.126Z,14.48
2023-04-08T12:09:22.679Z,15.70
2023-04-08T12:14:19.090Z,15.73
2023-04-08T12:19:15.541Z,15.80
2023-04-08T12:24:11.951Z,14.07
2023-04-08T12:29:11.586Z,13.60
2023-04-08T12:34:08.107Z,15.48
2023-04-08T12:39:04.778Z,17.58
2023-04-08T12:44:01.392Z,16.13
2023-04-08T12:49:04.366Z,18.40
2023-04-08T12:54:03.487Z,17.20
2023-04-08T12:59:01.007Z,16.73
2023-04-08T13:03:57.774Z,14.82
2023-04-08T13:08:54.729Z,15.13
2023-04-08T13:13:51.148Z,15.98
2023-04-08T13:18:47.544Z,14.77
2023-04-08T13:23:44.009Z,17.23
2023-04-08T13:28:53.748Z,17.05
2023-04-08T13:33:50.561Z,16.52
2023-04-08T13:38:47.012Z,16.42
2023-04-08T13:43:43.401Z,16.10
2023-04-08T13:48:39.924Z,16.63
2023-04-08T13:53:36.710Z,17.27
2023-04-08T13:58:33.166Z,15.05
2023-04-08T14:03:29.593Z,17.90
2023-04-08T14:08:26.118Z,16.15
2023-04-08T14:13:22.754Z,16.05
2023-04-08T14:18:19.759Z,18.00
2023-04-08T14:23:16.769Z,18.02
2023-04-08T14:28:13.194Z,15.05
2023-04-08T14:33:09.629Z,16.67
2023-04-08T14:38:06.170Z,16.33
2023-04-08T14:43:03.156Z,16.55
2023-04-08T14:47:59.666Z,16.90
2023-04-08T14:52:56.066Z,17.55
2023-04-08T14:57:52.457Z,18.35
2023-04-08T15:02:48.958Z,18.33
2023-04-08T15:07:47.211Z,17.40
2023-04-08T15:12:43.659Z,19.35
2023-04-08T15:17:40.070Z,18.00
2023-04-08T15:22:36.520Z,20.20
2023-04-08T15:27:34.178Z,18.55
2023-04-08T15:32:30.679Z,20.42
2023-04-08T15:37:27.714Z,23.75
2023-04-08T15:42:24.108Z,22.30
2023-04-08T15:47:20.486Z,22.42
2023-04-08T15:52:16.956Z,19.92
2023-04-08T15:57:14.328Z,23.58
2023-04-08T16:02:12.053Z,22.83
2023-04-08T16:07:08.536Z,24.58
2023-04-08T16:12:04.997Z,26.05
2023-04-08T16:17:01.489Z,30.05
2023-04-08T16:21:58.320Z,26.52
2023-04-08T16:26:54.685Z,24.35
2023-04-08T16:31:53.177Z,24.83
2023-04-08T16:36:51.706Z,25.27
2023-04-08T16:41:48.185Z,25.73
2023-04-08T16:46:44.596Z,24.83
2023-04-08T16:51:41.072Z,24.58
2023-04-08T16:56:37.463Z,26.13
2023-04-08T17:01:33.964Z,26.17
2023-04-08T17:06:31.164Z,26.45
2023-04-08T17:11:27.608Z,24.27
2023-04-08T17:16:25.256Z,28.15
2023-04-08T17:21:21.857Z,31.75
2023-04-08T17:26:18.234Z,35.08
2023-04-08T17:31:14.681Z,30.90
2023-04-08T17:36:11.966Z,31.85
2023-04-08T17:41:08.799Z,31.42
2023-04-08T17:46:05.228Z,31.05
2023-04-08T17:51:06.515Z,31.50
2023-04-08T17:56:03.003Z,33.97
2023-04-08T18:00:59.513Z,30.38
2023-04-08T18:05:56.142Z,29.38
2023-04-08T18:10:52.678Z,30.75
2023-04-08T18:15:49.146Z,30.30
2023-04-08T18:20:45.786Z,30.15
2023-04-08T18:25:44.460Z,33.28
2023-04-08T18:30:42.552Z,30.75
2023-04-08T18:35:39.014Z,39.05
2023-04-08T18:40:35.445Z,41.78
2023-04-08T18:45:31.970Z,40.08
2023-04-08T18:50:28.407Z,39.08
2023-04-08T18:55:24.873Z,43.65
2023-04-08T19:00:21.488Z,43.65
2023-04-08T19:05:17.941Z,37.22
2023-04-08T19:10:14.579Z,37.30
2023-04-08T19:15:11.207Z,38.60
2023-04-08T19:20:08.353Z,35.50
2023-04-08T19:25:05.128Z,46.00
2023-04-08T19:30:01.574Z,44.92
2023-04-08T19:34:57.993Z,43.58
2023-04-08T19:39:54.434Z,45.40
2023-04-08T19:44:51.567Z,45.15
2023-04-08T19:49:47.983Z,42.08
2023-04-08T19:54:44.390Z,43.60
2023-04-08T19:59:40.884Z,36.35
2023-04-08T20:04:37.452Z,41.92
2023-04-08T20:09:33.900Z,40.90
2023-04-08T20:14:31.202Z,41.95
2023-04-08T20:19:28.225Z,44.45
2023-04-08T20:24:24.739Z,43.88
2023-04-08T20:29:21.112Z,44.90
2023-04-08T20:34:17.532Z,48.30
2023-04-08T20:39:13.934Z,45.42
2023-04-08T20:44:10.616Z,49.00
2023-04-08T20:49:07.495Z,45.38
2023-04-08T20:54:04.796Z,45.67
2023-04-08T20:59:01.254Z,44.63
2023-04-08T21:03:57.754Z,43.85
2023-04-08T21:08:54.377Z,45.72
2023-04-08T21:13:50.940Z,42.90
2023-04-08T21:18:47.317Z,41.50
2023-04-08T21:23:43.754Z,39.33
2023-04-08T21:28:40.625Z,42.05
2023-04-08T21:33:37.315Z,40.08
2023-04-08T21:38:34.365Z,41.20
2023-04-08T21:43:30.811Z,39.90
2023-04-08T21:48:27.438Z,38.70
2023-04-08T21:53:23.882Z,36.97
2023-04-08T21:58:20.638Z,39.90
2023-04-08T22:03:17.341Z,35.92
2023-04-08T22:08:14.645Z,43.65
2023-04-08T22:13:11.483Z,39.10
2023-04-08T22:18:08.121Z,39.80
2023-04-08T22:23:04.614Z,37.00
2023-04-08T22:28:01.214Z,39.08
2023-04-08T22:32:57.694Z,38.00
2023-04-08T22:37:54.155Z,39.00
2023-04-08T22:42:50.642Z,42.55
2023-04-08T22:47:47.079Z,43.97
2023-04-08T22:52:43.475Z,45.38
2023-04-08T22:57:39.859Z,43.78
2023-04-08T23:02:37.521Z,43.75
2023-04-08T23:07:34.063Z,42.65
2023-04-08T23:12:30.541Z,44.15
2023-04-08T23:17:27.062Z,47.53
2023-04-08T23:22:24.260Z,42.30
2023-04-08T23:27:20.975Z,39.42
2023-04-08T23:32:17.420Z,42.10
2023-04-08T23:37:13.831Z,37.80
2023-04-08T23:42:10.297Z,35.00
2023-04-08T23:47:06.755Z,40.42
2023-04-08T23:52:03.253Z,39.60
2023-04-08T23:57:01.492Z,36.97
